Time;durP1;ratioP1;P1;durP2;ratioP2;P2;SDS_P1;SDS_P2;PMS_P1;PMS_P2;Temp;Humidity;BMP_temperature;BMP_pressure;BME280_temperature;BME280_humidity;BME280_pressure;Samples;Min_cycle;Max_cycle;Signal;HPM_P1;HPM_P2
2023/12/16 00:01:20;;;;;;;13.10;7.15;;;;;;;17.16;51.59;103930.41;5026610;28;20107;-38
2023/12/16 00:03:47;;;;;;;13.20;7.65;;;;;;;17.15;51.64;103924.19;5032528;28;20037;-36
2023/12/16 00:06:15;;;;;;;12.60;6.82;;;;;;;17.14;51.70;103924.28;5032255;28;20124;-37
2023/12/16 00:08:41;;;;;;;10.68;6.75;;;;;;;17.14;51.58;103935.00;5026112;28;20450;-36
2023/12/16 00:11:08;;;;;;;14.60;7.07;;;;;;;17.12;51.98;103931.50;5019811;28;20438;-36
2023/12/16 00:13:35;;;;;;;15.02;7.28;;;;;;;17.11;51.77;103927.09;5027139;28;20045;-36
2023/12/16 00:16:02;;;;;;;13.93;6.78;;;;;;;17.11;51.79;103927.97;5021839;28;20054;-37
2023/12/16 00:18:29;;;;;;;15.57;6.80;;;;;;;17.10;51.39;103920.88;5034177;28;20480;-37
2023/12/16 00:20:55;;;;;;;10.65;6.07;;;;;;;17.10;51.91;103920.88;5030545;28;20456;-36
2023/12/16 00:23:22;;;;;;;10.98;5.70;;;;;;;17.10;51.92;103920.00;5032734;28;20136;-37
2023/12/16 00:25:49;;;;;;;10.38;6.30;;;;;;;17.09;51.71;103918.28;5030253;28;20053;-37
2023/12/16 00:28:15;;;;;;;13.23;6.43;;;;;;;17.07;51.57;103907.59;5032086;28;20053;-38
2023/12/16 00:30:42;;;;;;;11.60;5.95;;;;;;;17.06;52.02;103905.88;5034784;28;20165;-36
2023/12/16 00:33:08;;;;;;;11.52;6.35;;;;;;;17.06;51.83;103916.59;5027396;28;20513;-36
2023/12/16 00:35:35;;;;;;;11.57;6.18;;;;;;;17.05;52.06;103909.50;5032051;28;20049;-37
2023/12/16 00:38:02;;;;;;;10.27;5.80;;;;;;;17.04;52.19;103921.13;5030343;28;20099;-37
2023/12/16 00:40:29;;;;;;;10.05;5.65;;;;;;;17.05;52.01;103927.41;5031085;28;20045;-36
2023/12/16 00:42:55;;;;;;;11.43;6.00;;;;;;;17.04;51.44;103926.50;5026779;28;20073;-37
2023/12/16 00:45:22;;;;;;;9.95;5.90;;;;;;;17.02;51.96;103923.91;5025802;28;20064;-36
2023/12/16 00:47:48;;;;;;;10.57;5.60;;;;;;;17.02;52.18;103921.22;5025836;28;20392;-37
2023/12/16 00:50:15;;;;;;;9.00;5.07;;;;;;;17.01;52.00;103926.66;5031621;28;20412;-37
2023/12/16 00:52:42;;;;;;;8.80;5.32;;;;;;;16.99;52.17;103934.75;5031187;28;20140;-38
2023/12/16 00:55:09;;;;;;;10.45;5.47;;;;;;;16.98;51.47;103934.84;5029676;28;20077;-37
2023/12/16 00:57:35;;;;;;;10.10;5.18;;;;;;;16.97;51.78;103930.44;5024726;28;20046;-36
2023/12/16 01:00:03;;;;;;;11.50;5.57;;;;;;;16.95;51.81;103924.25;5027142;28;20132;-37
2023/12/16 01:02:29;;;;;;;9.30;5.15;;;;;;;16.94;51.91;103917.16;5027731;28;20452;-39
2023/12/16 01:04:56;;;;;;;10.80;4.90;;;;;;;16.93;51.78;103907.41;5026962;28;20401;-37
2023/12/16 01:07:22;;;;;;;8.32;4.57;;;;;;;16.92;51.80;103905.63;5032955;28;20056;-39
2023/12/16 01:09:51;;;;;;;11.20;4.78;;;;;;;16.90;51.65;103907.53;5034147;28;20049;-36
2023/12/16 01:12:17;;;;;;;10.55;5.07;;;;;;;16.89;51.61;103911.16;5031842;28;20058;-36
2023/12/16 01:14:44;;;;;;;10.77;4.82;;;;;;;16.88;52.44;103909.41;5027348;28;20104;-38
2023/12/16 01:17:10;;;;;;;10.82;5.75;;;;;;;16.86;51.54;103905.94;5028120;28;20133;-36
2023/12/16 01:19:37;;;;;;;10.38;4.57;;;;;;;16.85;52.21;103904.22;5032550;28;20045;-36
2023/12/16 01:22:04;;;;;;;7.60;4.50;;;;;;;16.85;52.38;103912.25;5030007;28;20060;-38
2023/12/16 01:24:32;;;;;;;8.38;4.50;;;;;;;16.83;51.73;103906.94;5024671;28;20065;-39
2023/12/16 01:26:59;;;;;;;8.65;4.53;;;;;;;16.82;51.65;103902.53;5029503;28;20049;-37
2023/12/16 01:29:25;;;;;;;7.47;4.22;;;;;;;16.81;52.25;103903.47;5028009;28;20393;-37
2023/12/16 01:31:52;;;;;;;8.55;4.85;;;;;;;16.80;51.50;103900.84;5028371;28;20168;-36
2023/12/16 01:34:19;;;;;;;8.45;4.45;;;;;;;16.77;51.61;103905.44;5031128;28;20424;-36
2023/12/16 01:36:45;;;;;;;9.63;4.82;;;;;;;16.77;51.81;103908.09;5030900;28;20198;-39
2023/12/16 01:39:12;;;;;;;9.45;4.50;;;;;;;16.76;51.59;103909.06;5029124;28;20056;-36
2023/12/16 01:41:39;;;;;;;7.90;4.07;;;;;;;16.76;51.96;103908.16;5032194;28;20115;-37
2023/12/16 01:44:05;;;;;;;6.40;3.63;;;;;;;16.74;52.04;103900.19;5028316;28;20049;-38
2023/12/16 01:46:35;;;;;;;8.13;4.18;;;;;;;16.73;51.30;103902.97;5025613;28;20527;-36
2023/12/16 01:49:02;;;;;;;8.68;3.85;;;;;;;16.72;52.39;103904.75;5034621;28;20053;-41
2023/12/16 01:51:31;;;;;;;8.88;4.43;;;;;;;16.72;52.46;103911.88;5028152;28;20060;-43
2023/12/16 01:53:59;;;;;;;11.02;4.32;;;;;;;16.70;52.14;103909.28;5030133;28;21190;-42
2023/12/16 01:56:28;;;;;;;8.43;3.72;;;;;;;16.70;51.73;103911.09;5028001;28;20123;-41
2023/12/16 01:58:56;;;;;;;9.43;4.85;;;;;;;16.69;52.17;103922.75;5023406;28;20250;-41
2023/12/16 02:01:23;;;;;;;9.02;3.75;;;;;;;16.68;51.76;103921.91;5032359;28;20100;-42
2023/12/16 02:03:50;;;;;;;8.18;3.80;;;;;;;16.67;51.75;103927.28;5033396;28;20361;-43
2023/12/16 02:06:18;;;;;;;9.40;3.83;;;;;;;16.66;52.02;103933.59;5031708;28;20382;-42
2023/12/16 02:08:45;;;;;;;9.38;3.85;;;;;;;16.66;51.99;103930.94;5033961;28;20103;-40
2023/12/16 02:11:12;;;;;;;7.03;3.50;;;;;;;16.65;52.29;103932.72;5032723;28;20771;-42
2023/12/16 02:13:41;;;;;;;8.88;3.70;;;;;;;16.63;51.99;103925.69;5032433;28;20057;-43
2023/12/16 02:16:10;;;;;;;7.68;3.80;;;;;;;16.63;52.20;103928.38;5029593;28;20459;-41
2023/12/16 02:18:37;;;;;;;6.85;3.30;;;;;;;16.62;51.39;103927.50;5030865;28;21739;-42
2023/12/16 02:21:04;;;;;;;6.00;2.97;;;;;;;16.61;52.30;103920.41;5033715;28;20049;-43
2023/12/16 02:23:31;;;;;;;8.55;3.92;;;;;;;16.62;52.61;103926.66;5031948;28;20107;-42
2023/12/16 02:25:58;;;;;;;9.02;3.40;;;;;;;16.60;51.63;103915.13;5033165;28;20050;-41
2023/12/16 02:28:24;;;;;;;8.38;3.20;;;;;;;16.60;51.94;103912.44;5030122;28;20053;-42
2023/12/16 02:30:51;;;;;;;8.02;3.22;;;;;;;16.59;51.37;103914.25;5029088;28;20041;-43
2023/12/16 02:33:18;;;;;;;7.50;3.80;;;;;;;16.58;52.15;103915.19;5035225;28;20361;-42
2023/12/16 02:35:44;;;;;;;8.55;3.63;;;;;;;16.58;51.95;103911.66;5036300;28;20053;-42
2023/12/16 02:38:11;;;;;;;7.00;3.35;;;;;;;16.56;52.18;103906.34;5030816;28;20400;-41
2023/12/16 02:40:42;;;;;;;8.73;3.67;;;;;;;16.56;52.36;103911.69;5033513;28;20041;-42
2023/12/16 02:43:09;;;;;;;8.98;3.85;;;;;;;16.56;52.15;103905.47;5032799;28;20049;-43
2023/12/16 02:45:36;;;;;;;6.75;3.30;;;;;;;16.54;51.39;103902.88;5030746;28;20045;-42
2023/12/16 02:48:02;;;;;;;6.80;3.30;;;;;;;16.54;51.95;103910.91;5035198;28;20128;-42
2023/12/16 02:50:29;;;;;;;9.27;3.58;;;;;;;16.53;51.41;103915.41;5031005;28;20057;-43
2023/12/16 02:52:56;;;;;;;6.50;3.05;;;;;;;16.52;51.85;103912.78;5032492;28;20053;-43
2023/12/16 02:55:22;;;;;;;5.93;2.85;;;;;;;16.52;52.44;103910.09;5024550;28;20404;-42
2023/12/16 02:57:49;;;;;;;7.47;3.35;;;;;;;16.51;52.46;103903.00;5027946;28;20808;-40
2023/12/16 03:00:16;;;;;;;7.38;3.55;;;;;;;16.51;51.44;103903.00;5032972;28;20049;-39
2023/12/16 03:02:42;;;;;;;8.13;3.00;;;;;;;16.51;51.25;103897.66;5032379;28;20135;-43
2023/12/16 03:05:09;;;;;;;7.05;3.08;;;;;;;16.50;51.45;103903.97;5029841;28;20052;-43
2023/12/16 03:07:38;;;;;;;6.93;2.65;;;;;;;16.49;51.72;103902.22;5031998;28;20333;-41
2023/12/16 03:10:05;;;;;;;8.85;3.78;;;;;;;16.50;51.67;103901.28;5031269;28;20341;-43
2023/12/16 03:12:32;;;;;;;7.90;3.72;;;;;;;16.50;51.53;103895.94;5026494;28;20054;-43
2023/12/16 03:14:58;;;;;;;7.22;3.40;;;;;;;16.48;51.52;103901.38;5024507;28;20095;-43
2023/12/16 03:17:25;;;;;;;5.28;2.72;;;;;;;16.47;51.85;103899.59;5030283;28;20054;-43
2023/12/16 03:19:52;;;;;;;6.43;3.03;;;;;;;16.47;51.71;103902.28;5035173;28;20045;-43
2023/12/16 03:22:18;;;;;;;5.75;2.58;;;;;;;16.46;52.22;103897.00;5033946;28;20348;-43
2023/12/16 03:24:46;;;;;;;8.02;3.75;;;;;;;16.44;52.03;103888.16;5030850;28;20628;-37
2023/12/16 03:27:12;;;;;;;10.13;2.80;;;;;;;16.43;51.76;103887.28;5029576;28;20054;-42
2023/12/16 03:29:39;;;;;;;8.30;2.83;;;;;;;16.42;51.28;103884.69;5026358;28;20049;-42
2023/12/16 03:32:05;;;;;;;5.45;2.75;;;;;;;16.42;51.02;103876.66;5035151;28;20491;-43
2023/12/16 03:34:32;;;;;;;8.77;3.22;;;;;;;16.40;51.76;103874.06;5036464;28;20061;-42
2023/12/16 03:36:59;;;;;;;7.57;3.38;;;;;;;16.40;51.88;103879.41;5025320;28;20057;-40
2023/12/16 03:39:26;;;;;;;8.63;3.38;;;;;;;16.40;51.44;103886.56;5029772;28;20053;-43
2023/12/16 03:41:52;;;;;;;6.93;2.92;;;;;;;16.38;51.90;103881.28;5029502;28;20412;-41
2023/12/16 03:44:19;;;;;;;5.55;2.60;;;;;;;16.39;51.61;103891.03;5033266;28;20338;-43
2023/12/16 03:46:45;;;;;;;7.78;3.00;;;;;;;16.37;51.28;103881.38;5029749;28;20191;-43
2023/12/16 03:49:12;;;;;;;6.38;3.13;;;;;;;16.38;51.91;103877.75;5031274;28;20052;-42
2023/12/16 03:51:38;;;;;;;7.68;3.22;;;;;;;16.36;52.20;103879.59;5034066;28;20091;-42
2023/12/16 03:54:05;;;;;;;7.72;3.05;;;;;;;16.35;51.78;103876.06;5023362;28;20478;-43
2023/12/16 03:56:32;;;;;;;4.47;2.25;;;;;;;16.35;51.25;103875.19;5030979;28;20045;-43
2023/12/16 03:58:58;;;;;;;6.97;2.90;;;;;;;16.34;51.92;103876.13;5029227;28;20049;-43
2023/12/16 04:01:25;;;;;;;7.00;2.78;;;;;;;16.34;51.83;103881.50;5032930;28;20096;-43
2023/12/16 04:03:52;;;;;;;6.93;3.28;;;;;;;16.32;51.94;103876.19;5031778;28;20049;-42
2023/12/16 04:06:18;;;;;;;7.00;2.92;;;;;;;16.32;51.78;103883.34;5032976;28;20084;-42
2023/12/16 04:08:45;;;;;;;7.18;3.28;;;;;;;16.30;51.59;103880.75;5031939;28;20127;-43
2023/12/16 04:11:12;;;;;;;7.20;2.90;;;;;;;16.29;51.26;103879.03;5032395;28;20095;-42
2023/12/16 04:13:38;;;;;;;5.13;2.92;;;;;;;16.28;51.39;103879.94;5032067;28;20477;-43
2023/12/16 04:16:05;;;;;;;5.88;2.58;;;;;;;16.27;51.75;103876.41;5026631;28;20160;-42
2023/12/16 04:18:32;;;;;;;5.80;2.70;;;;;;;16.27;51.73;103879.06;5030215;28;20061;-43
2023/12/16 04:21:01;;;;;;;6.50;2.70;;;;;;;16.26;52.13;103877.34;5028919;28;20046;-42
2023/12/16 04:23:28;;;;;;;8.05;3.17;;;;;;;16.26;51.59;103874.66;5028156;28;20054;-43
2023/12/16 04:25:54;;;;;;;5.25;2.88;;;;;;;16.25;51.92;103880.97;5032402;28;20053;-42
2023/12/16 04:28:21;;;;;;;7.07;2.78;;;;;;;16.24;50.87;103887.25;5031946;28;20045;-42
2023/12/16 04:30:48;;;;;;;5.88;2.60;;;;;;;16.23;50.97;103882.81;5028356;28;20045;-42
2023/12/16 04:33:14;;;;;;;4.95;2.40;;;;;;;16.22;51.57;103873.06;5030855;28;20057;-42
2023/12/16 04:35:41;;;;;;;8.77;3.22;;;;;;;16.23;52.07;103881.97;5033003;28;20057;-43
2023/12/16 04:38:09;;;;;;;5.97;2.97;;;;;;;16.22;51.80;103882.91;5033905;28;20052;-40
2023/12/16 04:40:35;;;;;;;6.20;2.60;;;;;;;16.21;51.69;103887.38;5027492;28;20119;-43
2023/12/16 04:43:02;;;;;;;4.80;2.58;;;;;;;16.20;51.21;103896.38;5028973;28;20045;-43
2023/12/16 04:45:29;;;;;;;8.27;2.88;;;;;;;16.20;51.54;103891.00;5027084;28;20052;-43
2023/12/16 04:47:55;;;;;;;8.13;2.42;;;;;;;16.19;51.45;103889.25;5025329;28;20061;-43
2023/12/16 04:50:22;;;;;;;7.20;2.83;;;;;;;16.19;51.58;103886.56;5027677;28;20491;-43
2023/12/16 04:52:49;;;;;;;7.18;2.80;;;;;;;16.18;51.95;103884.84;5033948;28;20049;-40
2023/12/16 04:55:15;;;;;;;6.85;3.05;;;;;;;16.22;51.80;103890.94;5029725;28;20103;-42
2023/12/16 04:57:42;;;;;;;6.80;2.83;;;;;;;16.31;51.00;103890.50;5031137;28;20063;-42
2023/12/16 05:00:09;;;;;;;7.80;2.92;;;;;;;16.43;50.84;103891.78;5026250;28;20050;-43
2023/12/16 05:02:36;;;;;;;6.55;2.50;;;;;;;16.55;51.19;103888.56;5030183;28;20471;-42
2023/12/16 05:05:03;;;;;;;7.60;2.72;;;;;;;16.66;50.42;103893.44;5027998;28;20081;-41
2023/12/16 05:07:29;;;;;;;6.13;2.30;;;;;;;16.78;50.90;103882.19;5025564;28;20389;-43
2023/12/16 05:09:57;;;;;;;7.43;2.65;;;;;;;16.88;50.79;103883.47;5028263;28;20116;-39
2023/12/16 05:12:23;;;;;;;6.35;2.45;;;;;;;16.97;50.08;103882.19;5029196;28;20164;-39
2023/12/16 05:15:05;;;;;;;7.80;2.38;;;;;;;17.07;49.78;103871.91;5029617;28;20046;-36
2023/12/16 05:17:32;;;;;;;6.55;2.25;;;;;;;17.13;50.09;103867.13;5026560;28;20049;-36
2023/12/16 05:19:59;;;;;;;6.93;2.30;;;;;;;17.16;49.30;103861.59;5027696;28;20136;-41
2023/12/16 05:22:26;;;;;;;5.95;2.15;;;;;;;17.18;49.43;103857.03;5030855;28;20393;-39
2023/12/16 05:24:53;;;;;;;8.65;3.05;;;;;;;17.19;49.46;103869.50;5031385;28;20326;-38
2023/12/16 05:27:20;;;;;;;8.23;2.70;;;;;;;17.18;49.35;103875.81;5031168;28;20063;-40
2023/12/16 05:29:46;;;;;;;8.50;2.58;;;;;;;17.17;50.12;103874.06;5030381;28;20045;-39
2023/12/16 05:32:13;;;;;;;6.78;2.45;;;;;;;17.16;49.47;103872.31;5029316;28;20132;-37
2023/12/16 05:34:39;;;;;;;4.95;2.30;;;;;;;17.15;49.72;103872.41;5025011;28;20057;-37
2023/12/16 05:37:06;;;;;;;5.65;2.70;;;;;;;17.14;49.61;103866.19;5032194;28;20060;-38
2023/12/16 05:39:33;;;;;;;7.85;2.15;;;;;;;17.13;49.92;103866.25;5028855;28;20136;-38
2023/12/16 05:41:59;;;;;;;7.50;2.03;;;;;;;17.11;49.75;103863.63;5034451;28;20076;-37
2023/12/16 05:44:26;;;;;;;6.35;2.45;;;;;;;17.10;49.23;103866.41;5031414;28;20140;-37
2023/12/16 05:46:52;;;;;;;5.25;2.22;;;;;;;17.09;49.54;103864.66;5035109;28;20045;-39
2023/12/16 05:49:19;;;;;;;5.10;2.50;;;;;;;17.07;49.29;103875.44;5033097;28;20230;-37
2023/12/16 05:51:46;;;;;;;7.25;2.45;;;;;;;17.06;49.40;103870.16;5031751;28;21250;-43
2023/12/16 05:54:12;;;;;;;4.93;2.08;;;;;;;17.04;49.18;103880.94;5031808;28;20076;-43
2023/12/16 05:56:39;;;;;;;8.80;2.67;;;;;;;17.03;49.85;103887.25;5031862;28;20103;-43
2023/12/16 05:59:05;;;;;;;6.32;2.83;;;;;;;17.00;49.33;103880.25;5023781;28;20115;-42
2023/12/16 06:01:32;;;;;;;7.78;2.78;;;;;;;16.98;49.69;103874.06;5024386;28;20484;-43
2023/12/16 06:03:59;;;;;;;6.55;2.63;;;;;;;16.93;48.94;103877.94;5029730;28;20049;-43
2023/12/16 06:06:25;;;;;;;5.28;2.28;;;;;;;16.89;49.63;103876.34;5026882;28;20046;-43
2023/12/16 06:08:53;;;;;;;5.55;2.22;;;;;;;16.83;49.89;103871.25;5028182;28;20129;-42
2023/12/16 06:11:23;;;;;;;8.10;2.50;;;;;;;16.77;49.65;103872.41;5036713;28;20478;-43
2023/12/16 06:13:50;;;;;;;7.60;2.20;;;;;;;16.70;50.09;103865.56;5033125;28;20063;-43
2023/12/16 06:16:17;;;;;;;5.82;2.10;;;;;;;16.62;50.33;103868.59;5031191;28;20053;-42
2023/12/16 06:18:48;;;;;;;6.18;2.17;;;;;;;16.54;49.82;103879.66;5036141;28;20096;-41
2023/12/16 06:21:15;;;;;;;7.53;2.70;;;;;;;16.48;50.07;103889.75;5033075;28;20054;-41
2023/12/16 06:23:42;;;;;;;8.88;2.60;;;;;;;16.41;50.26;103888.31;5035291;28;20054;-43
2023/12/16 06:26:09;;;;;;;6.28;2.20;;;;;;;16.35;50.96;103888.56;5030160;28;20046;-41
2023/12/16 06:28:36;;;;;;;12.15;2.92;;;;;;;16.28;50.83;103883.50;5028227;28;20049;-43
2023/12/16 06:31:02;;;;;;;8.27;2.50;;;;;;;16.24;50.61;103881.91;5025873;28;20123;-43
2023/12/16 06:33:29;;;;;;;5.78;2.05;;;;;;;16.21;51.72;103884.72;5030311;28;20064;-43
2023/12/16 06:35:56;;;;;;;6.47;2.40;;;;;;;16.18;50.95;103892.00;5031479;28;20053;-39
2023/12/16 06:38:22;;;;;;;6.20;2.15;;;;;;;16.14;50.90;103896.63;5027584;28;20077;-42
2023/12/16 06:40:50;;;;;;;7.30;2.30;;;;;;;16.13;50.90;103891.34;5030927;28;20136;-43
2023/12/16 06:43:16;;;;;;;7.60;2.50;;;;;;;16.11;51.00;103906.56;5028581;28;20465;-43
2023/12/16 06:45:43;;;;;;;6.72;2.17;;;;;;;16.13;51.46;103902.03;5031181;28;20045;-43
2023/12/16 06:48:10;;;;;;;5.47;2.03;;;;;;;16.24;51.58;103905.09;5026659;28;20137;-43
2023/12/16 06:50:36;;;;;;;6.55;2.45;;;;;;;16.37;50.64;103903.66;5032522;28;20079;-41
2023/12/16 06:53:03;;;;;;;8.07;2.15;;;;;;;16.50;51.01;103903.97;5039270;28;20141;-42
2023/12/16 06:55:29;;;;;;;6.13;2.08;;;;;;;16.61;50.21;103898.13;5028382;28;20361;-42
2023/12/16 06:57:56;;;;;;;7.03;2.10;;;;;;;16.73;50.54;103898.47;5030671;28;20545;-41
2023/12/16 07:00:23;;;;;;;6.05;1.90;;;;;;;16.88;50.31;103904.91;5033917;28;20049;-43
2023/12/16 07:02:49;;;;;;;5.25;2.00;;;;;;;17.00;49.90;103899.00;5034534;28;20703;-38
2023/12/16 07:05:16;;;;;;;8.30;2.40;;;;;;;17.13;49.64;103896.59;5033679;28;20895;-38
2023/12/16 07:07:43;;;;;;;8.93;2.63;;;;;;;17.27;49.89;103896.78;5043671;28;20054;-36
2023/12/16 07:10:10;;;;;;;8.60;2.92;;;;;;;17.41;49.70;103895.28;5024375;28;20133;-39
2023/12/16 07:12:36;;;;;;;5.95;2.10;;;;;;;17.52;49.39;103883.06;5024815;28;20357;-39
2023/12/16 07:15:03;;;;;;;5.93;2.10;;;;;;;17.64;49.30;103881.56;5021293;28;20056;-38
2023/12/16 07:17:33;;;;;;;10.05;2.25;;;;;;;17.75;48.81;103887.31;5023139;28;20140;-37
2023/12/16 07:20:00;;;;;;;5.65;1.90;;;;;;;17.86;49.32;103880.53;5024888;28;20081;-38
2023/12/16 07:22:29;;;;;;;6.78;1.88;;;;;;;17.95;48.96;103877.38;5026014;28;20045;-39
2023/12/16 07:24:56;;;;;;;7.47;2.10;;;;;;;18.04;49.05;103886.75;5030439;28;20052;-37
2023/12/16 07:27:25;;;;;;;6.22;2.30;;;;;;;18.12;48.44;103881.88;5028083;28;20148;-40
2023/12/16 07:29:52;;;;;;;4.35;1.90;;;;;;;18.19;48.62;103892.22;5032452;28;20345;-38
2023/12/16 07:32:19;;;;;;;6.70;2.30;;;;;;;18.27;48.21;103888.25;5032379;28;20056;-37
2023/12/16 07:34:49;;;;;;;3.28;1.30;;;;;;;18.33;48.40;103901.34;5032331;28;20049;-38
2023/12/16 07:37:16;;;;;;;5.65;1.60;;;;;;;18.39;48.23;103903.72;5028247;28;20080;-39
2023/12/16 07:39:42;;;;;;;6.32;1.73;;;;;;;18.43;48.54;103900.78;5024077;28;20107;-40
2023/12/16 07:42:09;;;;;;;6.30;1.85;;;;;;;18.45;48.34;103893.53;5031830;28;20084;-38
2023/12/16 07:44:36;;;;;;;6.70;2.03;;;;;;;18.47;47.87;103894.28;5025512;28;20065;-40
2023/12/16 07:47:03;;;;;;;6.05;2.17;;;;;;;18.47;47.94;103893.44;5029416;28;20870;-39
2023/12/16 07:49:29;;;;;;;3.78;1.42;;;;;;;18.44;48.33;103891.78;5026283;28;20103;-39
2023/12/16 07:51:57;;;;;;;6.00;2.20;;;;;;;18.41;47.97;103891.06;5027859;28;20038;-39
2023/12/16 07:54:24;;;;;;;5.60;2.15;;;;;;;18.37;47.62;103889.50;5031471;28;20088;-40
2023/12/16 07:56:51;;;;;;;5.50;1.85;;;;;;;18.30;47.88;103894.34;5031561;28;20147;-38
2023/12/16 07:59:17;;;;;;;5.82;2.17;;;;;;;18.23;48.05;103893.78;5025796;28;20091;-38
2023/12/16 08:01:50;;;;;;;5.07;2.47;;;;;;;18.15;48.34;103896.00;5025580;28;20077;-38
2023/12/16 08:04:18;;;;;;;8.10;2.53;;;;;;;18.12;48.27;103904.19;5024769;28;20056;-37
2023/12/16 08:06:45;;;;;;;9.73;3.03;;;;;;;18.05;47.96;103905.50;5025109;28;20132;-37
2023/12/16 08:09:12;;;;;;;6.80;2.85;;;;;;;17.99;48.37;103900.44;5024115;28;20049;-37
2023/12/16 08:11:38;;;;;;;9.48;2.95;;;;;;;17.93;48.72;103900.72;5027771;28;20119;-37
2023/12/16 08:14:06;;;;;;;7.70;3.20;;;;;;;17.89;48.69;103904.50;5027573;28;20049;-40
2023/12/16 08:16:33;;;;;;;8.93;3.28;;;;;;;17.85;48.46;103909.19;5033181;28;20406;-40
2023/12/16 08:18:59;;;;;;;9.25;3.83;;;;;;;17.82;48.87;103901.28;5029626;28;20132;-40
2023/12/16 08:21:26;;;;;;;11.75;3.78;;;;;;;17.77;48.60;103906.03;5027476;28;20287;-38
2023/12/16 08:23:53;;;;;;;9.40;3.45;;;;;;;17.75;48.81;103908.78;5030377;28;20103;-38
2023/12/16 08:26:20;;;;;;;8.90;4.18;;;;;;;17.73;49.41;103918.69;5023658;28;20072;-40
2023/12/16 08:28:46;;;;;;;6.65;3.33;;;;;;;17.70;48.89;103921.53;5028027;28;20060;-39
2023/12/16 08:31:13;;;;;;;11.02;4.97;;;;;;;17.67;48.70;103921.66;5029371;28;20146;-38
2023/12/16 08:33:40;;;;;;;9.18;4.05;;;;;;;17.67;48.73;103923.47;5026824;28;20046;-37
2023/12/16 08:36:06;;;;;;;11.43;4.72;;;;;;;17.65;48.98;103922.72;5025533;28;20060;-40
2023/12/16 08:38:35;;;;;;;13.77;4.25;;;;;;;17.63;49.25;103932.63;5032452;28;20128;-37
2023/12/16 08:41:06;;;;;;;8.65;4.28;;;;;;;17.60;49.21;103944.34;5034600;28;20498;-38
2023/12/16 08:43:34;;;;;;;11.02;5.00;;;;;;;17.58;49.21;103937.34;5028800;28;20077;-37
2023/12/16 08:46:05;;;;;;;9.73;4.68;;;;;;;17.57;49.48;103943.63;5030358;28;20133;-37
2023/12/16 08:48:32;;;;;;;10.70;4.93;;;;;;;17.55;49.27;103951.78;5026485;28;20053;-37
2023/12/16 08:50:59;;;;;;;12.07;5.38;;;;;;;17.54;49.24;103950.03;5022787;28;20057;-41
2023/12/16 08:53:26;;;;;;;12.60;5.15;;;;;;;17.52;49.29;103952.78;5030227;28;20131;-39
2023/12/16 08:55:53;;;;;;;11.57;5.28;;;;;;;17.51;49.10;103956.41;5030786;28;20060;-38
2023/12/16 08:58:19;;;;;;;14.73;5.50;;;;;;;17.51;49.36;103963.59;5027858;28;20046;-38
2023/12/16 09:00:48;;;;;;;12.38;6.25;;;;;;;17.49;49.57;103955.63;5028759;28;20056;-36
2023/12/16 09:03:15;;;;;;;14.77;7.05;;;;;;;17.48;49.56;103961.06;5023367;28;20042;-37
2023/12/16 09:05:41;;;;;;;17.08;8.23;;;;;;;17.45;49.45;103962.09;5024083;28;20118;-38
2023/12/16 09:08:08;;;;;;;16.65;7.68;;;;;;;17.44;49.50;103962.16;5026678;28;20060;-37
2023/12/16 09:10:35;;;;;;;17.15;8.18;;;;;;;17.43;49.34;103971.13;5029687;28;20080;-37
2023/12/16 09:13:01;;;;;;;16.40;8.35;;;;;;;17.42;49.53;103966.72;5021792;28;20041;-38
2023/12/16 09:15:28;;;;;;;17.75;9.30;;;;;;;17.41;49.44;103976.59;5023395;28;20103;-38
2023/12/16 09:17:55;;;;;;;21.25;9.25;;;;;;;17.40;49.60;103982.88;5019028;28;20064;-37
2023/12/16 09:20:23;;;;;;;18.05;9.30;;;;;;;17.39;49.47;103983.81;5027853;28;20135;-38
2023/12/16 09:22:49;;;;;;;23.25;10.88;;;;;;;17.38;49.48;103984.78;5028289;28;20077;-38
2023/12/16 09:25:16;;;;;;;19.65;9.88;;;;;;;17.37;49.39;103983.03;5029377;28;20060;-42
2023/12/16 09:27:43;;;;;;;20.10;9.73;;;;;;;17.37;49.53;103998.25;5022012;28;20057;-43
2023/12/16 09:30:11;;;;;;;20.92;10.98;;;;;;;17.34;49.58;103993.03;5020045;28;20074;-42
2023/12/16 09:32:41;;;;;;;19.40;9.82;;;;;;;17.31;49.70;103987.81;5027177;28;20187;-43
2023/12/16 09:35:08;;;;;;;20.48;11.27;;;;;;;17.27;49.86;103993.31;5028323;28;20045;-41
2023/12/16 09:37:35;;;;;;;22.92;11.07;;;;;;;17.23;49.63;103991.72;5027711;28;20049;-42
2023/12/16 09:40:03;;;;;;;24.48;12.10;;;;;;;17.19;49.89;103992.78;5025244;28;20049;-43
2023/12/16 09:42:29;;;;;;;23.55;11.77;;;;;;;17.15;50.04;103991.19;5016274;28;20104;-43
2023/12/16 09:44:59;;;;;;;24.13;13.48;;;;;;;17.11;50.45;104005.69;5019600;28;20226;-42
2023/12/16 09:47:26;;;;;;;25.05;13.35;;;;;;;17.07;50.36;104006.75;5020260;28;20077;-43
2023/12/16 09:49:56;;;;;;;29.00;13.90;;;;;;;17.02;50.29;103998.94;5028926;28;20382;-43
2023/12/16 09:52:23;;;;;;;28.75;13.68;;;;;;;17.00;50.87;103995.47;5025447;28;20046;-42
2023/12/16 09:54:50;;;;;;;26.38;13.63;;;;;;;16.96;50.35;103999.19;5030996;28;20064;-43
2023/12/16 09:57:18;;;;;;;28.45;14.70;;;;;;;16.93;50.43;103994.00;5030759;28;20057;-41
2023/12/16 09:59:46;;;;;;;31.98;15.43;;;;;;;16.89;51.17;104002.25;5031224;28;20099;-43
2023/12/16 10:02:23;;;;;;;34.25;15.13;;;;;;;16.86;51.22;104005.94;5028718;28;20056;-41
2023/12/16 10:04:51;;;;;;;35.08;17.13;;;;;;;16.85;51.70;104000.66;5028464;28;20060;-43
2023/12/16 10:07:18;;;;;;;34.90;18.13;;;;;;;16.83;51.23;103999.84;5032195;28;20513;-43
2023/12/16 10:09:44;;;;;;;39.58;19.65;;;;;;;16.82;51.19;104003.47;5028249;28;20073;-43
2023/12/16 10:12:12;;;;;;;40.97;21.90;;;;;;;16.78;52.08;103995.56;5026525;28;20099;-40
2023/12/16 10:14:50;;;;;;;39.60;19.02;;;;;;;16.77;51.45;104001.00;5027626;28;20049;-42
2023/12/16 10:17:18;;;;;;;47.28;24.20;;;;;;;16.75;52.11;103998.34;5027952;28;20077;-42
2023/12/16 10:19:45;;;;;;;44.22;23.02;;;;;;;16.74;51.83;104006.47;5026963;28;20052;-42
2023/12/16 10:22:13;;;;;;;50.33;24.17;;;;;;;16.73;51.74;104010.97;5029393;28;20057;-36
2023/12/16 10:24:41;;;;;;;47.22;23.63;;;;;;;16.72;51.60;104019.91;5034156;28;20064;-36
2023/12/16 10:27:08;;;;;;;50.22;24.55;;;;;;;16.72;52.16;104019.00;5033757;28;20516;-39
2023/12/16 10:29:40;;;;;;;47.33;25.80;;;;;;;16.71;52.66;104009.25;5027752;28;20045;-36
2023/12/16 10:32:26;;;;;;;47.42;24.88;;;;;;;16.70;51.90;104007.50;5025438;28;20050;-37
2023/12/16 10:34:53;;;;;;;51.78;25.83;;;;;;;16.71;52.27;104006.56;5025057;28;20048;-40
2023/12/16 10:37:20;;;;;;;53.88;25.67;;;;;;;16.79;52.64;104012.50;5028014;28;20053;-36
2023/12/16 10:39:47;;;;;;;49.70;24.83;;;;;;;16.90;52.34;104012.88;5029279;28;20426;-37
2023/12/16 10:42:13;;;;;;;54.03;26.67;;;;;;;17.06;51.77;104014.88;5030137;28;20162;-37
2023/12/16 10:44:40;;;;;;;51.47;26.55;;;;;;;17.20;51.47;104005.25;5026154;28;20120;-36
2023/12/16 10:47:10;;;;;;;47.45;26.20;;;;;;;17.35;51.41;103992.09;5030435;28;20383;-37
2023/12/16 10:49:42;;;;;;;53.88;27.40;;;;;;;17.49;51.33;103987.81;5025650;28;20533;-38
2023/12/16 10:52:13;;;;;;;47.15;24.95;;;;;;;17.62;51.60;103985.41;5025109;28;20038;-38
2023/12/16 10:54:41;;;;;;;49.97;26.63;;;;;;;17.74;50.73;103981.25;5020902;28;20326;-36
2023/12/16 10:57:21;;;;;;;55.08;27.42;;;;;;;17.86;51.08;103979.81;5023849;28;20061;-37
2023/12/16 11:00:04;;;;;;;48.47;26.02;;;;;;;17.98;50.98;103981.91;5025047;28;20148;-37
2023/12/16 11:02:32;;;;;;;;;;;;;;;18.08;51.27;103971.56;5028043;28;20141;-37
2023/12/16 11:05:27;;;;;;;46.38;25.20;;;;;;;18.19;50.70;103966.50;5028220;28;19921;-36
2023/12/16 11:07:56;;;;;;;44.65;24.23;;;;;;;18.25;50.26;103969.75;5026756;28;20329;-37
2023/12/16 11:10:23;;;;;;;48.22;24.92;;;;;;;18.30;50.25;103968.66;5030099;28;20508;-39
2023/12/16 11:12:51;;;;;;;46.15;24.85;;;;;;;18.31;50.27;103968.56;5030674;28;20049;-35
2023/12/16 11:15:19;;;;;;;46.83;24.10;;;;;;;18.32;50.41;103967.59;5032120;28;20064;-38
2023/12/16 11:17:54;;;;;;;44.28;23.80;;;;;;;18.31;50.40;103959.66;5029120;28;20142;-38
2023/12/16 11:20:25;;;;;;;45.30;23.77;;;;;;;18.30;50.01;103963.28;5033946;28;20050;-36
2023/12/16 11:22:53;;;;;;;46.90;24.13;;;;;;;18.29;50.00;103961.53;5024498;28;20148;-36